createdAt,value
2019-05-20T00:01:15.700Z,76.90
2019-05-20T00:03:44.392Z,77.10
2019-05-20T00:06:13.163Z,77.30
2019-05-20T00:08:41.926Z,77.20
2019-05-20T00:11:10.644Z,77.60
2019-05-20T00:13:39.330Z,77.90
2019-05-20T00:16:08.016Z,78.00
2019-05-20T00:18:36.736Z,78.40
2019-05-20T00:21:05.414Z,78.60
2019-05-20T00:23:34.143Z,78.80
2019-05-20T00:26:02.828Z,78.80
2019-05-20T00:28:31.514Z,78.90
2019-05-20T00:31:00.245Z,78.80
2019-05-20T00:33:28.932Z,79.40
2019-05-20T00:35:57.657Z,79.10
2019-05-20T00:38:26.345Z,79.40
2019-05-20T00:40:55.106Z,80.00
2019-05-20T00:43:23.852Z,79.30
2019-05-20T00:45:52.586Z,79.60
2019-05-20T00:48:21.306Z,79.30
2019-05-20T00:50:50.006Z,79.10
2019-05-20T00:53:18.734Z,79.40
2019-05-20T00:55:47.451Z,79.30
2019-05-20T00:58:16.253Z,79.10
2019-05-20T01:00:44.892Z,79.70
2019-05-20T01:03:13.578Z,79.40
2019-05-20T01:05:42.306Z,79.70
2019-05-20T01:08:10.998Z,79.50
2019-05-20T01:10:39.786Z,79.50
2019-05-20T01:13:08.466Z,79.40
2019-05-20T01:15:37.161Z,79.40
2019-05-20T01:18:05.878Z,79.10
2019-05-20T01:20:34.594Z,79.60
2019-05-20T01:23:03.310Z,79.80
2019-05-20T01:25:31.990Z,79.70
2019-05-20T01:28:00.676Z,79.80
2019-05-20T01:30:29.397Z,80.40
2019-05-20T01:33:12.840Z,80.50
2019-05-20T01:35:28.461Z,80.30
2019-05-20T01:37:57.144Z,80.70
2019-05-20T01:40:25.896Z,80.60
2019-05-20T01:42:54.597Z,80.90
2019-05-20T01:45:23.281Z,81.00
2019-05-20T01:47:51.998Z,81.40
2019-05-20T01:50:20.686Z,81.20
2019-05-20T01:52:49.408Z,81.60
2019-05-20T01:55:18.099Z,81.10
2019-05-20T01:57:46.851Z,81.00
2019-05-20T02:00:15.537Z,80.50
2019-05-20T02:02:44.222Z,80.50
2019-05-20T02:05:12.951Z,80.30
2019-05-20T02:07:41.649Z,80.20
2019-05-20T02:10:10.407Z,80.10
2019-05-20T02:12:39.092Z,79.80
2019-05-20T02:15:11.995Z,79.70
2019-05-20T02:17:40.730Z,79.50
2019-05-20T02:20:09.419Z,79.50
2019-05-20T02:22:38.190Z,79.60
2019-05-20T02:25:06.981Z,79.90
2019-05-20T02:27:35.666Z,79.80
2019-05-20T02:30:07.183Z,80.00
2019-05-20T02:32:35.869Z,79.90
2019-05-20T02:35:08.964Z,79.30
2019-05-20T02:37:37.650Z,79.90
2019-05-20T02:40:07.236Z,80.20
2019-05-20T02:42:35.908Z,80.00
2019-05-20T02:45:06.489Z,80.20
2019-05-20T02:47:35.210Z,80.10
2019-05-20T02:50:05.108Z,80.50
2019-05-20T02:52:33.816Z,80.70
2019-05-20T02:55:02.502Z,80.70
2019-05-20T02:57:31.275Z,80.70
2019-05-20T02:59:59.972Z,80.80
2019-05-20T03:02:28.691Z,80.60
2019-05-20T03:04:57.371Z,80.50
2019-05-20T03:07:26.054Z,80.40
2019-05-20T03:09:54.805Z,80.50
2019-05-20T03:12:23.487Z,80.80
2019-05-20T03:14:52.190Z,81.40
2019-05-20T03:17:20.990Z,80.90
2019-05-20T03:19:49.697Z,80.80
2019-05-20T03:22:18.447Z,80.70
2019-05-20T03:24:47.135Z,80.60
2019-05-20T03:27:15.837Z,80.50
2019-05-20T03:29:44.562Z,80.40
2019-05-20T03:32:13.250Z,80.30
2019-05-20T03:34:50.821Z,80.40
2019-05-20T03:37:12.360Z,80.20
2019-05-20T03:39:41.045Z,80.00
2019-05-20T03:42:09.864Z,80.10
2019-05-20T03:44:38.554Z,80.00
2019-05-20T03:47:07.281Z,80.10
2019-05-20T03:49:35.970Z,80.00
2019-05-20T03:52:04.658Z,80.00
2019-05-20T03:54:33.380Z,79.90
2019-05-20T03:57:02.075Z,79.90
2019-05-20T03:59:30.797Z,79.60
2019-05-20T04:01:59.474Z,80.40
2019-05-20T04:04:28.154Z,80.00
2019-05-20T04:06:56.875Z,79.70
2019-05-20T04:09:25.601Z,79.50
2019-05-20T04:11:54.296Z,79.30
2019-05-20T04:14:22.984Z,79.30
2019-05-20T04:16:52.635Z,79.50
2019-05-20T04:19:21.324Z,79.80
2019-05-20T04:21:50.009Z,79.40
2019-05-20T04:24:18.731Z,79.10
2019-05-20T04:26:47.416Z,78.90
2019-05-20T04:29:16.146Z,78.80
2019-05-20T04:31:44.833Z,78.30
2019-05-20T04:34:13.587Z,78.20
2019-05-20T04:36:42.276Z,77.90
2019-05-20T04:39:10.967Z,78.40
2019-05-20T04:41:39.692Z,77.60
2019-05-20T04:44:08.377Z,77.20
2019-05-20T04:46:37.128Z,77.20
2019-05-20T04:49:05.810Z,77.00
2019-05-20T04:51:34.601Z,77.40
2019-05-20T04:54:03.323Z,77.40
2019-05-20T04:56:32.024Z,77.80
2019-05-20T04:59:00.799Z,77.00
2019-05-20T05:01:29.489Z,76.00
2019-05-20T05:03:58.179Z,75.90
2019-05-20T05:06:26.926Z,75.80
2019-05-20T05:08:55.603Z,75.50
2019-05-20T05:11:24.373Z,76.00
2019-05-20T05:13:53.346Z,75.80
2019-05-20T05:16:22.029Z,75.60
2019-05-20T05:18:50.750Z,76.60
2019-05-20T05:21:19.432Z,76.30
2019-05-20T05:23:58.752Z,75.90
2019-05-20T05:26:18.537Z,76.00
2019-05-20T05:28:47.186Z,76.30
2019-05-20T05:31:15.904Z,76.30
2019-05-20T05:33:44.595Z,76.20
2019-05-20T05:36:13.334Z,75.90
2019-05-20T05:38:42.015Z,76.00
2019-05-20T05:41:10.703Z,76.30
2019-05-20T05:43:39.411Z,75.70
2019-05-20T05:46:08.111Z,76.00
2019-05-20T05:48:36.862Z,75.50
2019-05-20T05:51:05.538Z,75.60
2019-05-20T05:53:34.219Z,75.50
2019-05-20T05:56:03.176Z,75.40
2019-05-20T05:58:31.859Z,74.80
2019-05-20T06:01:00.541Z,74.20
2019-05-20T06:03:29.257Z,74.10
2019-05-20T06:06:11.361Z,73.70
2019-05-20T06:08:28.330Z,74.10
2019-05-20T06:10:57.013Z,74.20
2019-05-20T06:13:25.891Z,74.50
2019-05-20T06:15:54.791Z,74.50
2019-05-20T06:18:23.595Z,74.40
2019-05-20T06:20:52.336Z,74.60
2019-05-20T06:23:21.013Z,74.80
2019-05-20T06:25:49.707Z,75.30
2019-05-20T06:28:18.420Z,75.20
2019-05-20T06:30:47.122Z,75.90
2019-05-20T06:33:15.883Z,76.30
2019-05-20T06:35:44.558Z,76.50
2019-05-20T06:38:18.869Z,76.80
2019-05-20T06:40:48.145Z,76.80
2019-05-20T06:43:16.821Z,77.00
2019-05-20T06:45:45.567Z,77.20
2019-05-20T06:48:14.255Z,77.50
2019-05-20T06:50:42.941Z,77.20
2019-05-20T06:53:11.670Z,77.40
2019-05-20T06:55:40.341Z,77.60
2019-05-20T06:58:09.091Z,77.80
2019-05-20T07:00:38.981Z,78.40
2019-05-20T07:03:07.661Z,77.60
2019-05-20T07:05:36.418Z,77.60
2019-05-20T07:08:05.114Z,77.20
2019-05-20T07:10:33.807Z,77.20
2019-05-20T07:13:02.537Z,77.80
2019-05-20T07:15:31.255Z,77.30
2019-05-20T07:17:59.963Z,77.80
2019-05-20T07:20:28.649Z,78.20
2019-05-20T07:22:57.482Z,78.40
2019-05-20T07:25:26.246Z,78.50
2019-05-20T07:27:54.907Z,78.60
2019-05-20T07:30:23.780Z,78.90
2019-05-20T07:32:52.462Z,78.50
2019-05-20T07:35:30.222Z,78.70
2019-05-20T07:37:51.541Z,79.00
2019-05-20T07:40:31.302Z,78.90
2019-05-20T07:43:00.043Z,78.90
2019-05-20T07:45:28.947Z,78.70
2019-05-20T07:47:57.667Z,79.30
2019-05-20T07:50:26.667Z,79.70
2019-05-20T07:52:55.359Z,79.70
2019-05-20T07:55:25.051Z,78.50
2019-05-20T07:57:53.765Z,78.20
2019-05-20T08:00:22.445Z,77.60
2019-05-20T08:02:51.198Z,77.90
2019-05-20T08:05:19.875Z,76.80
2019-05-20T08:07:52.366Z,76.40
2019-05-20T08:10:18.926Z,76.60
2019-05-20T08:12:47.637Z,76.50
2019-05-20T08:15:16.359Z,76.80
2019-05-20T08:17:45.037Z,76.80
2019-05-20T08:20:13.729Z,76.60
2019-05-20T08:22:42.554Z,76.80
2019-05-20T08:25:11.294Z,76.90
2019-05-20T08:27:39.997Z,77.30
2019-05-20T08:30:08.720Z,77.10
2019-05-20T08:32:37.405Z,78.30
2019-05-20T08:35:06.948Z,79.10
2019-05-20T08:37:45.331Z,78.50
2019-05-20T08:40:06.056Z,78.30
2019-05-20T08:42:34.786Z,78.60
2019-05-20T08:45:04.257Z,79.00
2019-05-20T08:47:33.154Z,79.90
2019-05-20T08:50:03.702Z,79.20
2019-05-20T08:52:32.183Z,79.20
2019-05-20T08:55:00.901Z,79.00
2019-05-20T08:57:29.583Z,78.40
2019-05-20T08:59:58.480Z,78.30
2019-05-20T09:02:27.145Z,78.40
2019-05-20T09:04:55.836Z,77.70
2019-05-20T09:07:24.574Z,78.00
2019-05-20T09:09:53.270Z,78.30
2019-05-20T09:12:21.943Z,79.30
2019-05-20T09:14:50.664Z,78.90
2019-05-20T09:17:19.350Z,79.20
2019-05-20T09:19:48.105Z,79.40
2019-05-20T09:22:16.779Z,79.20
2019-05-20T09:24:45.490Z,80.10
2019-05-20T09:27:14.293Z,79.40
2019-05-20T09:29:42.967Z,79.50
2019-05-20T09:32:11.723Z,79.30
2019-05-20T09:34:40.405Z,79.80
2019-05-20T09:37:09.109Z,80.20
2019-05-20T09:39:37.891Z,80.70
2019-05-20T09:42:06.564Z,80.80
2019-05-20T09:44:35.274Z,81.70
2019-05-20T09:47:03.970Z,82.20
2019-05-20T09:49:32.694Z,82.90
2019-05-20T09:52:01.531Z,83.20
2019-05-20T09:54:30.215Z,83.10
2019-05-20T09:56:58.917Z,82.70
2019-05-20T09:59:42.003Z,82.20
2019-05-20T10:01:57.945Z,82.00
2019-05-20T10:04:26.701Z,81.80
2019-05-20T10:06:55.389Z,81.20
2019-05-20T10:09:24.074Z,81.20
2019-05-20T10:11:52.795Z,80.60
2019-05-20T10:14:21.475Z,79.80
2019-05-20T10:16:50.238Z,78.10
2019-05-20T10:19:18.928Z,77.00
2019-05-20T10:21:47.613Z,75.40
2019-05-20T10:24:16.359Z,75.20
2019-05-20T10:26:45.038Z,73.50
2019-05-20T10:29:13.725Z,72.40
2019-05-20T10:31:42.545Z,71.50
2019-05-20T10:34:11.233Z,71.50
2019-05-20T10:36:40.156Z,72.10
2019-05-20T10:39:08.906Z,73.10
2019-05-20T10:41:37.556Z,73.40
2019-05-20T10:44:06.291Z,74.80
2019-05-20T10:46:34.978Z,73.80
2019-05-20T10:49:03.788Z,73.50
2019-05-20T10:51:32.441Z,71.80
2019-05-20T10:54:01.128Z,72.10
2019-05-20T10:56:29.840Z,71.70
2019-05-20T10:58:58.535Z,72.20
2019-05-20T11:01:27.283Z,71.50
2019-05-20T11:03:55.985Z,70.50
2019-05-20T11:06:24.692Z,70.40
2019-05-20T11:08:53.431Z,71.30
2019-05-20T11:11:22.102Z,71.80
2019-05-20T11:13:50.780Z,71.50
2019-05-20T11:16:19.494Z,72.10
2019-05-20T11:18:48.174Z,70.90
2019-05-20T11:21:16.938Z,69.90
2019-05-20T11:23:45.613Z,69.70
2019-05-20T11:26:14.299Z,68.90
2019-05-20T11:28:43.015Z,68.00
2019-05-20T11:31:11.709Z,67.40
2019-05-20T11:33:40.448Z,66.10
2019-05-20T11:36:09.132Z,65.10
2019-05-20T11:38:37.805Z,64.30
2019-05-20T11:41:06.535Z,61.80
2019-05-20T11:43:35.223Z,61.50
2019-05-20T11:46:03.982Z,59.90
2019-05-20T11:48:32.655Z,59.80
2019-05-20T11:51:01.347Z,60.20
2019-05-20T11:53:30.083Z,59.00
2019-05-20T11:55:58.751Z,58.60
2019-05-20T11:58:27.478Z,59.10
2019-05-20T12:00:56.184Z,59.00
2019-05-20T12:03:24.844Z,59.00
2019-05-20T12:05:53.798Z,59.50
2019-05-20T12:08:22.479Z,59.60
2019-05-20T12:10:51.127Z,59.50
2019-05-20T12:13:19.831Z,59.30
2019-05-20T12:15:48.509Z,58.20
2019-05-20T12:18:17.247Z,57.60
2019-05-20T12:20:45.928Z,57.80
2019-05-20T12:23:14.595Z,58.10
2019-05-20T12:25:43.307Z,58.00
2019-05-20T12:28:11.997Z,56.00
2019-05-20T12:30:40.741Z,55.50
2019-05-20T12:33:18.479Z,56.50
2019-05-20T12:35:39.756Z,58.30
2019-05-20T12:38:08.465Z,55.70
2019-05-20T12:40:37.131Z,53.40
2019-05-20T12:43:05.998Z,52.90
2019-05-20T12:45:34.669Z,52.90
2019-05-20T12:48:03.350Z,52.10
2019-05-20T12:50:32.091Z,51.30
2019-05-20T12:53:00.750Z,48.50
2019-05-20T12:55:29.441Z,47.90
2019-05-20T12:57:58.158Z,48.20
2019-05-20T13:00:26.841Z,47.10
2019-05-20T13:02:55.601Z,47.50
2019-05-20T13:05:24.286Z,47.40
2019-05-20T13:07:52.959Z,46.90
2019-05-20T13:10:29.623Z,45.60
2019-05-20T13:12:51.994Z,42.80
2019-05-20T13:15:20.736Z,41.00
2019-05-20T13:17:49.426Z,40.30
2019-05-20T13:20:18.106Z,37.70
2019-05-20T13:22:46.817Z,38.70
2019-05-20T13:25:15.500Z,40.30
2019-05-20T13:27:44.227Z,41.40
2019-05-20T13:30:14.297Z,40.40
2019-05-20T13:32:42.983Z,37.10
2019-05-20T13:35:12.127Z,34.50
2019-05-20T13:37:40.828Z,34.10
2019-05-20T13:40:09.507Z,32.80
2019-05-20T13:42:38.214Z,31.10
2019-05-20T13:45:07.402Z,30.10
2019-05-20T13:47:36.152Z,28.50
2019-05-20T13:50:08.463Z,27.60
2019-05-20T13:52:37.150Z,26.70
2019-05-20T13:55:05.911Z,25.70
2019-05-20T13:57:34.586Z,24.90
2019-05-20T14:00:03.337Z,23.90
2019-05-20T14:02:32.000Z,22.70
2019-05-20T14:05:00.684Z,23.40
2019-05-20T14:07:29.411Z,24.40
2019-05-20T14:09:58.093Z,24.40
2019-05-20T14:12:26.842Z,24.50
2019-05-20T14:14:55.569Z,22.20
2019-05-20T14:17:24.329Z,22.00
2019-05-20T14:19:53.101Z,20.80
2019-05-20T14:22:21.769Z,21.70
2019-05-20T14:24:50.457Z,21.70
2019-05-20T14:27:19.180Z,21.60
2019-05-20T14:29:47.880Z,23.30
2019-05-20T14:32:16.662Z,23.90
2019-05-20T14:34:45.431Z,23.80
2019-05-20T14:37:14.130Z,24.80
2019-05-20T14:39:42.982Z,25.10
2019-05-20T14:42:11.651Z,26.30
2019-05-20T14:44:40.422Z,26.20
2019-05-20T14:47:09.106Z,25.40
2019-05-20T14:49:37.819Z,24.90
2019-05-20T14:52:06.559Z,26.70
2019-05-20T14:54:35.273Z,27.10
2019-05-20T14:57:04.001Z,26.50
2019-05-20T14:59:32.693Z,27.90
2019-05-20T15:02:01.386Z,27.40
2019-05-20T15:04:30.155Z,28.70
2019-05-20T15:06:58.839Z,31.40
2019-05-20T15:09:27.523Z,31.80
2019-05-20T15:11:56.267Z,32.30
2019-05-20T15:14:24.936Z,32.20
2019-05-20T15:16:53.698Z,31.00
2019-05-20T15:19:22.383Z,30.50
2019-05-20T15:21:51.057Z,30.30
2019-05-20T15:24:19.786Z,29.90
2019-05-20T15:26:48.869Z,31.40
2019-05-20T15:29:27.560Z,32.80
2019-05-20T15:31:48.207Z,32.60
2019-05-20T15:34:16.878Z,33.30
2019-05-20T15:36:45.683Z,33.30
2019-05-20T15:39:14.395Z,34.00
2019-05-20T15:41:43.169Z,32.60
2019-05-20T15:44:11.841Z,32.70
2019-05-20T15:46:40.546Z,32.00
2019-05-20T15:49:09.280Z,32.20
2019-05-20T15:51:37.976Z,32.70
2019-05-20T15:54:08.395Z,33.40
2019-05-20T15:56:37.089Z,33.60
2019-05-20T15:59:05.792Z,33.40
2019-05-20T16:01:34.626Z,34.60
2019-05-20T16:04:03.307Z,34.70
2019-05-20T16:06:32.001Z,33.20
2019-05-20T16:09:00.713Z,33.30
2019-05-20T16:11:29.464Z,34.30
2019-05-20T16:13:58.305Z,33.80
2019-05-20T16:16:26.991Z,34.70
2019-05-20T16:18:55.686Z,35.30
2019-05-20T16:21:24.431Z,35.90
2019-05-20T16:23:53.137Z,34.90
2019-05-20T16:26:21.836Z,36.00
2019-05-20T16:28:50.544Z,35.50
2019-05-20T16:31:19.228Z,35.80
2019-05-20T16:33:47.981Z,35.90
2019-05-20T16:36:16.675Z,36.60
2019-05-20T16:38:45.390Z,36.40
2019-05-20T16:41:14.067Z,35.70
2019-05-20T16:43:42.743Z,36.00
2019-05-20T16:46:11.613Z,36.30
2019-05-20T16:48:40.301Z,37.00
2019-05-20T16:51:08.991Z,37.00
2019-05-20T16:53:37.715Z,36.80
2019-05-20T16:56:06.388Z,36.30
2019-05-20T16:58:35.147Z,36.80
2019-05-20T17:01:03.823Z,37.30
2019-05-20T17:03:32.510Z,37.30
2019-05-20T17:06:01.251Z,37.50
2019-05-20T17:08:29.937Z,38.20
2019-05-20T17:10:58.691Z,38.20
2019-05-20T17:13:27.381Z,38.30
2019-05-20T17:15:56.078Z,38.00
2019-05-20T17:18:24.830Z,39.30
2019-05-20T17:20:53.538Z,38.50
2019-05-20T17:23:22.228Z,38.40
2019-05-20T17:25:51.105Z,38.50
2019-05-20T17:28:20.038Z,38.90
2019-05-20T17:30:48.796Z,38.90
2019-05-20T17:33:17.494Z,39.10
2019-05-20T17:35:46.218Z,39.70
2019-05-20T17:38:14.946Z,40.40
2019-05-20T17:40:43.611Z,40.40
2019-05-20T17:43:12.393Z,40.60
2019-05-20T17:45:41.093Z,40.60
2019-05-20T17:48:09.770Z,40.50
2019-05-20T17:50:38.500Z,40.00
2019-05-20T17:53:07.191Z,40.60
2019-05-20T17:55:36.106Z,41.10
2019-05-20T17:58:04.852Z,41.20
2019-05-20T18:00:33.531Z,41.40
2019-05-20T18:03:02.429Z,42.10
2019-05-20T18:05:31.151Z,42.50
2019-05-20T18:07:59.845Z,43.10
2019-05-20T18:10:28.570Z,42.90
2019-05-20T18:12:57.283Z,43.00
2019-05-20T18:15:26.008Z,43.70
2019-05-20T18:17:54.737Z,44.20
2019-05-20T18:20:24.959Z,44.60
2019-05-20T18:22:53.697Z,45.90
2019-05-20T18:25:22.383Z,45.70
2019-05-20T18:27:51.179Z,46.20
2019-05-20T18:30:19.871Z,46.90
2019-05-20T18:32:48.590Z,47.00
2019-05-20T18:35:17.302Z,47.10
2019-05-20T18:37:45.986Z,47.60
2019-05-20T18:40:15.258Z,47.70
2019-05-20T18:42:44.065Z,48.20
2019-05-20T18:45:12.749Z,48.90
2019-05-20T18:47:41.487Z,49.10
2019-05-20T18:50:10.163Z,49.30
2019-05-20T18:52:38.860Z,49.80
2019-05-20T18:55:08.124Z,50.20
2019-05-20T18:57:36.802Z,50.40
2019-05-20T19:00:07.899Z,50.70
2019-05-20T19:02:36.622Z,51.20
2019-05-20T19:05:07.006Z,51.10
2019-05-20T19:07:35.715Z,50.90
2019-05-20T19:10:04.996Z,50.60
2019-05-20T19:12:33.788Z,51.70
2019-05-20T19:15:02.471Z,51.30
2019-05-20T19:17:31.229Z,51.50
2019-05-20T19:20:00.071Z,51.70
2019-05-20T19:22:28.746Z,52.20
2019-05-20T19:24:57.459Z,52.70
2019-05-20T19:27:26.166Z,52.90
2019-05-20T19:29:54.872Z,53.20
2019-05-20T19:32:24.002Z,53.20
2019-05-20T19:34:52.685Z,53.30
2019-05-20T19:37:21.362Z,53.70
2019-05-20T19:39:50.090Z,54.40
2019-05-20T19:42:18.829Z,53.80
2019-05-20T19:44:47.564Z,54.20
2019-05-20T19:47:16.292Z,54.20
2019-05-20T19:49:44.971Z,54.60
2019-05-20T19:52:13.709Z,54.70
2019-05-20T19:54:42.409Z,54.90
2019-05-20T19:57:11.136Z,55.30
2019-05-20T19:59:39.810Z,55.70
2019-05-20T20:02:17.148Z,55.40
2019-05-20T20:04:38.895Z,55.80
2019-05-20T20:07:07.586Z,56.00
2019-05-20T20:09:57.419Z,56.20
2019-05-20T20:12:26.323Z,56.40
2019-05-20T20:14:55.030Z,56.70
2019-05-20T20:17:23.793Z,57.10
2019-05-20T20:19:52.496Z,57.10
2019-05-20T20:22:21.179Z,57.40
2019-05-20T20:24:50.298Z,57.30
2019-05-20T20:27:19.042Z,57.50
2019-05-20T20:29:47.946Z,57.90
2019-05-20T20:32:16.612Z,58.10
2019-05-20T20:34:45.299Z,58.10
2019-05-20T20:37:14.043Z,58.50
2019-05-20T20:39:42.775Z,58.70
2019-05-20T20:42:11.450Z,58.90
2019-05-20T20:44:40.170Z,59.10
2019-05-20T20:47:08.860Z,59.70
2019-05-20T20:49:37.602Z,59.80
2019-05-20T20:52:06.291Z,59.90
2019-05-20T20:54:34.981Z,60.50
2019-05-20T20:57:03.706Z,60.50
2019-05-20T20:59:32.385Z,60.60
2019-05-20T21:02:01.171Z,61.10
2019-05-20T21:04:29.891Z,61.30
2019-05-20T21:06:58.567Z,61.30
2019-05-20T21:09:27.362Z,61.60
2019-05-20T21:11:56.053Z,61.90
2019-05-20T21:14:24.802Z,62.10
2019-05-20T21:16:53.475Z,61.90
2019-05-20T21:19:22.155Z,61.90
2019-05-20T21:21:51.166Z,62.30
2019-05-20T21:24:19.847Z,62.30
2019-05-20T21:26:48.531Z,62.50
2019-05-20T21:29:17.242Z,62.80
2019-05-20T21:31:45.931Z,63.00
2019-05-20T21:34:14.671Z,63.30
2019-05-20T21:36:47.670Z,63.10
2019-05-20T21:39:13.694Z,63.10
2019-05-20T21:41:42.410Z,62.50
2019-05-20T21:44:11.089Z,63.80
2019-05-20T21:46:39.880Z,63.40
2019-05-20T21:49:08.538Z,63.70
2019-05-20T21:51:37.210Z,64.20
2019-05-20T21:54:05.930Z,64.70
2019-05-20T21:56:34.614Z,64.50
2019-05-20T21:59:03.778Z,64.80
2019-05-20T22:01:32.475Z,65.00
2019-05-20T22:04:01.154Z,65.00
2019-05-20T22:06:29.879Z,65.30
2019-05-20T22:08:58.563Z,65.90
2019-05-20T22:11:27.306Z,65.60
2019-05-20T22:13:56.000Z,65.60
2019-05-20T22:16:25.277Z,65.80
2019-05-20T22:18:53.994Z,66.10
2019-05-20T22:21:24.255Z,66.10
2019-05-20T22:23:57.464Z,66.40
2019-05-20T22:26:26.153Z,66.30
2019-05-20T22:28:54.846Z,66.70
2019-05-20T22:31:23.562Z,66.90
2019-05-20T22:33:52.244Z,67.00
2019-05-20T22:36:20.995Z,67.30
2019-05-20T22:38:49.674Z,68.00
2019-05-20T22:41:18.378Z,67.30
2019-05-20T22:43:47.088Z,67.80
2019-05-20T22:46:15.772Z,68.20
2019-05-20T22:48:44.564Z,68.60
2019-05-20T22:51:13.246Z,69.00
2019-05-20T22:53:41.944Z,68.30
2019-05-20T22:56:10.940Z,68.50
2019-05-20T22:58:39.618Z,68.80
2019-05-20T23:01:08.327Z,69.00
2019-05-20T23:03:37.060Z,68.90
2019-05-20T23:06:05.746Z,68.60
2019-05-20T23:08:34.502Z,68.70
2019-05-20T23:11:03.188Z,68.70
2019-05-20T23:13:31.874Z,68.90
2019-05-20T23:16:00.612Z,68.60
2019-05-20T23:18:29.316Z,68.60
2019-05-20T23:20:58.062Z,68.90
2019-05-20T23:23:26.770Z,69.00
2019-05-20T23:25:55.448Z,69.00
2019-05-20T23:28:24.179Z,69.00
2019-05-20T23:30:52.852Z,69.10
2019-05-20T23:33:21.822Z,69.20
2019-05-20T23:35:50.507Z,69.50
2019-05-20T23:38:19.193Z,69.50
2019-05-20T23:40:47.940Z,68.90
2019-05-20T23:43:16.627Z,69.40
2019-05-20T23:45:45.322Z,69.80
2019-05-20T23:48:14.044Z,69.50
2019-05-20T23:50:42.740Z,69.00
2019-05-20T23:53:11.487Z,69.00
2019-05-20T23:55:40.179Z,68.80
2019-05-20T23:58:08.860Z,69.10
